sensor_id;sensor_type;location;lat;lon;timestamp;temperature;humidity
3648;DHT22;1840;48.892;15.312;2023-03-14T00:01:10;3.90;93.30
3648;DHT22;1840;48.892;15.312;2023-03-14T00:03:39;3.70;93.40
3648;DHT22;1840;48.892;15.312;2023-03-14T00:06:08;3.70;93.30
3648;DHT22;1840;48.892;15.312;2023-03-14T00:08:36;3.70;92.40
3648;DHT22;1840;48.892;15.312;2023-03-14T00:11:07;3.20;92.30
3648;DHT22;1840;48.892;15.312;2023-03-14T00:13:35;3.00;92.60
3648;DHT22;1840;48.892;15.312;2023-03-14T00:16:05;2.90;92.90
3648;DHT22;1840;48.892;15.312;2023-03-14T00:18:34;2.80;93.90
3648;DHT22;1840;48.892;15.312;2023-03-14T00:21:04;2.80;93.80
3648;DHT22;1840;48.892;15.312;2023-03-14T00:23:33;2.80;93.80
3648;DHT22;1840;48.892;15.312;2023-03-14T00:26:04;2.80;93.50
3648;DHT22;1840;48.892;15.312;2023-03-14T00:28:34;2.70;93.70
3648;DHT22;1840;48.892;15.312;2023-03-14T00:31:03;2.80;93.90
3648;DHT22;1840;48.892;15.312;2023-03-14T00:33:31;2.80;93.70
3648;DHT22;1840;48.892;15.312;2023-03-14T00:36:01;2.70;94.00
3648;DHT22;1840;48.892;15.312;2023-03-14T00:38:31;2.80;94.00
3648;DHT22;1840;48.892;15.312;2023-03-14T00:41:03;2.70;94.10
3648;DHT22;1840;48.892;15.312;2023-03-14T00:43:31;2.60;94.60
3648;DHT22;1840;48.892;15.312;2023-03-14T00:46:02;2.60;95.10
3648;DHT22;1840;48.892;15.312;2023-03-14T00:48:30;2.60;95.10
3648;DHT22;1840;48.892;15.312;2023-03-14T00:50:59;2.70;95.40
3648;DHT22;1840;48.892;15.312;2023-03-14T00:53:27;2.80;94.80
3648;DHT22;1840;48.892;15.312;2023-03-14T00:55:55;2.80;94.90
3648;DHT22;1840;48.892;15.312;2023-03-14T00:58:23;2.90;94.70
3648;DHT22;1840;48.892;15.312;2023-03-14T01:00:51;2.90;94.30
3648;DHT22;1840;48.892;15.312;2023-03-14T01:03:20;3.00;94.20
3648;DHT22;1840;48.892;15.312;2023-03-14T01:05:48;2.90;94.10
3648;DHT22;1840;48.892;15.312;2023-03-14T01:08:16;2.80;94.00
3648;DHT22;1840;48.892;15.312;2023-03-14T01:10:44;2.50;94.60
3648;DHT22;1840;48.892;15.312;2023-03-14T01:13:13;2.50;94.40
3648;DHT22;1840;48.892;15.312;2023-03-14T01:15:41;2.20;94.60
3648;DHT22;1840;48.892;15.312;2023-03-14T01:18:09;2.30;94.50
3648;DHT22;1840;48.892;15.312;2023-03-14T01:20:38;2.30;94.90
3648;DHT22;1840;48.892;15.312;2023-03-14T01:23:06;2.30;94.90
3648;DHT22;1840;48.892;15.312;2023-03-14T01:25:34;2.00;95.20
3648;DHT22;1840;48.892;15.312;2023-03-14T01:28:08;1.90;95.70
3648;DHT22;1840;48.892;15.312;2023-03-14T01:30:36;2.10;96.30
3648;DHT22;1840;48.892;15.312;2023-03-14T01:33:04;2.30;96.10
3648;DHT22;1840;48.892;15.312;2023-03-14T01:35:33;2.30;95.70
3648;DHT22;1840;48.892;15.312;2023-03-14T01:38:03;2.40;95.90
3648;DHT22;1840;48.892;15.312;2023-03-14T01:40:31;2.50;95.50
3648;DHT22;1840;48.892;15.312;2023-03-14T01:43:12;2.40;95.30
3648;DHT22;1840;48.892;15.312;2023-03-14T01:46:13;2.50;95.60
3648;DHT22;1840;48.892;15.312;2023-03-14T01:48:47;2.50;96.10
3648;DHT22;1840;48.892;15.312;2023-03-14T01:51:22;2.70;96.00
3648;DHT22;1840;48.892;15.312;2023-03-14T01:53:54;2.70;95.90
3648;DHT22;1840;48.892;15.312;2023-03-14T01:56:23;2.80;95.90
3648;DHT22;1840;48.892;15.312;2023-03-14T01:58:52;2.90;95.60
3648;DHT22;1840;48.892;15.312;2023-03-14T02:01:22;2.90;95.60
3648;DHT22;1840;48.892;15.312;2023-03-14T02:03:54;2.80;95.30
3648;DHT22;1840;48.892;15.312;2023-03-14T02:06:25;2.60;95.10
3648;DHT22;1840;48.892;15.312;2023-03-14T02:08:55;2.40;94.80
3648;DHT22;1840;48.892;15.312;2023-03-14T02:11:27;2.30;94.50
3648;DHT22;1840;48.892;15.312;2023-03-14T02:13:57;2.00;94.70
3648;DHT22;1840;48.892;15.312;2023-03-14T02:16:26;2.00;94.60
3648;DHT22;1840;48.892;15.312;2023-03-14T02:18:54;2.00;94.60
3648;DHT22;1840;48.892;15.312;2023-03-14T02:21:29;1.80;94.70
3648;DHT22;1840;48.892;15.312;2023-03-14T02:24:07;1.70;95.20
3648;DHT22;1840;48.892;15.312;2023-03-14T02:26:44;1.80;94.90
3648;DHT22;1840;48.892;15.312;2023-03-14T02:29:14;1.80;94.80
3648;DHT22;1840;48.892;15.312;2023-03-14T02:31:42;1.80;95.10
3648;DHT22;1840;48.892;15.312;2023-03-14T02:34:11;1.90;95.00
3648;DHT22;1840;48.892;15.312;2023-03-14T02:36:40;2.00;95.30
3648;DHT22;1840;48.892;15.312;2023-03-14T02:39:13;2.00;95.30
3648;DHT22;1840;48.892;15.312;2023-03-14T02:41:43;2.10;95.30
3648;DHT22;1840;48.892;15.312;2023-03-14T02:44:11;2.10;95.10
3648;DHT22;1840;48.892;15.312;2023-03-14T02:46:41;1.90;95.10
3648;DHT22;1840;48.892;15.312;2023-03-14T02:49:12;1.70;95.70
3648;DHT22;1840;48.892;15.312;2023-03-14T02:51:43;1.70;96.00
3648;DHT22;1840;48.892;15.312;2023-03-14T02:54:13;1.70;95.60
3648;DHT22;1840;48.892;15.312;2023-03-14T02:56:42;1.80;95.60
3648;DHT22;1840;48.892;15.312;2023-03-14T02:59:10;1.90;95.20
3648;DHT22;1840;48.892;15.312;2023-03-14T03:01:38;2.00;95.10
3648;DHT22;1840;48.892;15.312;2023-03-14T03:04:08;1.90;95.00
3648;DHT22;1840;48.892;15.312;2023-03-14T03:06:36;1.80;94.80
3648;DHT22;1840;48.892;15.312;2023-03-14T03:09:04;1.40;95.20
3648;DHT22;1840;48.892;15.312;2023-03-14T03:11:33;1.50;95.50
3648;DHT22;1840;48.892;15.312;2023-03-14T03:14:01;1.50;95.30
3648;DHT22;1840;48.892;15.312;2023-03-14T03:16:29;1.50;95.40
3648;DHT22;1840;48.892;15.312;2023-03-14T03:18:57;1.60;95.50
3648;DHT22;1840;48.892;15.312;2023-03-14T03:21:26;1.60;95.60
3648;DHT22;1840;48.892;15.312;2023-03-14T03:23:55;1.60;95.80
3648;DHT22;1840;48.892;15.312;2023-03-14T03:26:23;1.50;96.50
3648;DHT22;1840;48.892;15.312;2023-03-14T03:28:51;1.50;96.90
3648;DHT22;1840;48.892;15.312;2023-03-14T03:31:19;1.40;97.20
3648;DHT22;1840;48.892;15.312;2023-03-14T03:33:48;1.70;97.40
3648;DHT22;1840;48.892;15.312;2023-03-14T03:36:20;1.80;97.10
3648;DHT22;1840;48.892;15.312;2023-03-14T03:38:50;1.70;97.00
3648;DHT22;1840;48.892;15.312;2023-03-14T03:41:18;1.50;96.20
3648;DHT22;1840;48.892;15.312;2023-03-14T03:43:46;1.20;96.60
3648;DHT22;1840;48.892;15.312;2023-03-14T03:46:15;1.30;96.60
3648;DHT22;1840;48.892;15.312;2023-03-14T03:48:43;1.20;96.50
3648;DHT22;1840;48.892;15.312;2023-03-14T03:51:12;1.40;96.40
3648;DHT22;1840;48.892;15.312;2023-03-14T03:53:41;1.40;96.60
3648;DHT22;1840;48.892;15.312;2023-03-14T03:56:11;1.40;96.50
3648;DHT22;1840;48.892;15.312;2023-03-14T03:58:39;1.50;96.40
3648;DHT22;1840;48.892;15.312;2023-03-14T04:01:09;1.50;96.40
3648;DHT22;1840;48.892;15.312;2023-03-14T04:03:38;1.60;96.40
3648;DHT22;1840;48.892;15.312;2023-03-14T04:06:09;1.60;96.50
3648;DHT22;1840;48.892;15.312;2023-03-14T04:08:37;1.70;96.60
3648;DHT22;1840;48.892;15.312;2023-03-14T04:11:07;1.70;96.70
3648;DHT22;1840;48.892;15.312;2023-03-14T04:13:36;1.70;97.00
3648;DHT22;1840;48.892;15.312;2023-03-14T04:16:11;1.70;96.80
3648;DHT22;1840;48.892;15.312;2023-03-14T04:18:41;1.80;96.50
3648;DHT22;1840;48.892;15.312;2023-03-14T04:21:09;1.80;96.50
3648;DHT22;1840;48.892;15.312;2023-03-14T04:23:37;1.60;96.60
3648;DHT22;1840;48.892;15.312;2023-03-14T04:26:05;1.50;96.80
3648;DHT22;1840;48.892;15.312;2023-03-14T04:28:33;1.40;96.20
3648;DHT22;1840;48.892;15.312;2023-03-14T04:31:08;1.30;96.60
3648;DHT22;1840;48.892;15.312;2023-03-14T04:33:37;1.10;97.00
3648;DHT22;1840;48.892;15.312;2023-03-14T04:36:06;1.30;96.80
3648;DHT22;1840;48.892;15.312;2023-03-14T04:38:35;1.30;96.80
3648;DHT22;1840;48.892;15.312;2023-03-14T04:41:03;1.30;97.00
3648;DHT22;1840;48.892;15.312;2023-03-14T04:43:32;1.40;96.70
3648;DHT22;1840;48.892;15.312;2023-03-14T04:46:00;1.30;96.80
3648;DHT22;1840;48.892;15.312;2023-03-14T04:48:29;1.30;97.00
3648;DHT22;1840;48.892;15.312;2023-03-14T04:50:57;1.30;96.70
3648;DHT22;1840;48.892;15.312;2023-03-14T04:53:25;1.40;96.70
3648;DHT22;1840;48.892;15.312;2023-03-14T04:55:55;1.50;96.50
3648;DHT22;1840;48.892;15.312;2023-03-14T04:58:23;1.40;96.80
3648;DHT22;1840;48.892;15.312;2023-03-14T05:00:54;1.40;96.80
3648;DHT22;1840;48.892;15.312;2023-03-14T05:03:22;1.50;96.90
3648;DHT22;1840;48.892;15.312;2023-03-14T05:05:52;1.40;97.00
3648;DHT22;1840;48.892;15.312;2023-03-14T05:08:21;1.50;96.80
3648;DHT22;1840;48.892;15.312;2023-03-14T05:10:52;1.40;97.00
3648;DHT22;1840;48.892;15.312;2023-03-14T05:13:20;1.50;97.10
3648;DHT22;1840;48.892;15.312;2023-03-14T05:15:49;1.40;96.90
3648;DHT22;1840;48.892;15.312;2023-03-14T05:18:18;1.40;97.20
3648;DHT22;1840;48.892;15.312;2023-03-14T05:20:46;1.50;96.80
3648;DHT22;1840;48.892;15.312;2023-03-14T05:23:15;1.50;96.70
3648;DHT22;1840;48.892;15.312;2023-03-14T05:25:43;1.40;96.90
3648;DHT22;1840;48.892;15.312;2023-03-14T05:28:11;1.50;96.70
3648;DHT22;1840;48.892;15.312;2023-03-14T05:30:40;1.30;96.80
3648;DHT22;1840;48.892;15.312;2023-03-14T05:33:08;1.40;96.70
3648;DHT22;1840;48.892;15.312;2023-03-14T05:35:36;1.30;96.80
3648;DHT22;1840;48.892;15.312;2023-03-14T05:38:04;1.40;97.00
3648;DHT22;1840;48.892;15.312;2023-03-14T05:40:34;1.30;97.10
3648;DHT22;1840;48.892;15.312;2023-03-14T05:43:02;1.50;97.10
3648;DHT22;1840;48.892;15.312;2023-03-14T05:45:30;1.30;97.30
3648;DHT22;1840;48.892;15.312;2023-03-14T05:48:00;1.40;97.30
3648;DHT22;1840;48.892;15.312;2023-03-14T05:50:29;1.40;97.20
3648;DHT22;1840;48.892;15.312;2023-03-14T05:52:57;1.00;97.40
3648;DHT22;1840;48.892;15.312;2023-03-14T05:55:25;0.90;98.20
3648;DHT22;1840;48.892;15.312;2023-03-14T05:57:54;0.80;98.20
3648;DHT22;1840;48.892;15.312;2023-03-14T06:00:23;0.80;98.50
3648;DHT22;1840;48.892;15.312;2023-03-14T06:02:51;1.10;98.70
3648;DHT22;1840;48.892;15.312;2023-03-14T06:05:19;1.30;98.00
3648;DHT22;1840;48.892;15.312;2023-03-14T06:07:47;1.00;98.60
3648;DHT22;1840;48.892;15.312;2023-03-14T06:10:15;1.00;98.90
3648;DHT22;1840;48.892;15.312;2023-03-14T06:12:43;1.20;99.00
3648;DHT22;1840;48.892;15.312;2023-03-14T06:15:13;1.50;98.90
3648;DHT22;1840;48.892;15.312;2023-03-14T06:17:41;1.50;98.60
3648;DHT22;1840;48.892;15.312;2023-03-14T06:20:10;1.60;98.80
3648;DHT22;1840;48.892;15.312;2023-03-14T06:22:38;1.80;98.50
3648;DHT22;1840;48.892;15.312;2023-03-14T06:25:07;1.90;98.80
3648;DHT22;1840;48.892;15.312;2023-03-14T06:27:36;2.20;98.60
3648;DHT22;1840;48.892;15.312;2023-03-14T06:30:04;2.40;98.10
3648;DHT22;1840;48.892;15.312;2023-03-14T06:32:34;2.40;98.10
3648;DHT22;1840;48.892;15.312;2023-03-14T06:35:02;2.70;98.50
3648;DHT22;1840;48.892;15.312;2023-03-14T06:37:30;2.90;99.00
3648;DHT22;1840;48.892;15.312;2023-03-14T06:39:58;3.30;99.50
3648;DHT22;1840;48.892;15.312;2023-03-14T06:42:26;3.60;99.40
3648;DHT22;1840;48.892;15.312;2023-03-14T06:44:54;4.00;99.40
3648;DHT22;1840;48.892;15.312;2023-03-14T06:47:22;4.30;99.20
3648;DHT22;1840;48.892;15.312;2023-03-14T06:49:52;4.30;99.00
3648;DHT22;1840;48.892;15.312;2023-03-14T06:52:20;4.50;99.70
3648;DHT22;1840;48.892;15.312;2023-03-14T06:54:48;4.90;99.50
3648;DHT22;1840;48.892;15.312;2023-03-14T06:57:16;5.30;99.20
3648;DHT22;1840;48.892;15.312;2023-03-14T06:59:44;5.60;99.10
3648;DHT22;1840;48.892;15.312;2023-03-14T07:02:12;5.60;99.40
3648;DHT22;1840;48.892;15.312;2023-03-14T07:04:41;5.40;97.80
3648;DHT22;1840;48.892;15.312;2023-03-14T07:07:10;5.30;98.40
3648;DHT22;1840;48.892;15.312;2023-03-14T07:09:38;5.30;98.30
3648;DHT22;1840;48.892;15.312;2023-03-14T07:12:07;5.00;97.90
3648;DHT22;1840;48.892;15.312;2023-03-14T07:14:35;5.00;98.20
3648;DHT22;1840;48.892;15.312;2023-03-14T07:17:03;5.30;98.90
3648;DHT22;1840;48.892;15.312;2023-03-14T07:19:31;5.60;99.00
3648;DHT22;1840;48.892;15.312;2023-03-14T07:22:00;5.90;98.80
3648;DHT22;1840;48.892;15.312;2023-03-14T07:24:29;6.00;98.90
3648;DHT22;1840;48.892;15.312;2023-03-14T07:26:58;6.20;98.50
3648;DHT22;1840;48.892;15.312;2023-03-14T07:29:26;6.30;98.50
3648;DHT22;1840;48.892;15.312;2023-03-14T07:31:54;6.30;98.70
3648;DHT22;1840;48.892;15.312;2023-03-14T07:34:22;6.40;98.60
3648;DHT22;1840;48.892;15.312;2023-03-14T07:36:50;6.50;98.40
3648;DHT22;1840;48.892;15.312;2023-03-14T07:39:18;6.60;98.50
3648;DHT22;1840;48.892;15.312;2023-03-14T07:41:47;6.60;98.50
3648;DHT22;1840;48.892;15.312;2023-03-14T07:44:17;6.90;98.30
3648;DHT22;1840;48.892;15.312;2023-03-14T07:46:45;7.00;98.10
3648;DHT22;1840;48.892;15.312;2023-03-14T07:49:14;7.10;98.10
3648;DHT22;1840;48.892;15.312;2023-03-14T07:51:42;7.40;97.90
3648;DHT22;1840;48.892;15.312;2023-03-14T07:54:10;7.60;97.90
3648;DHT22;1840;48.892;15.312;2023-03-14T07:56:39;7.70;97.80
3648;DHT22;1840;48.892;15.312;2023-03-14T07:59:09;7.80;97.60
3648;DHT22;1840;48.892;15.312;2023-03-14T08:01:37;7.80;97.50
3648;DHT22;1840;48.892;15.312;2023-03-14T08:04:06;8.00;97.70
3648;DHT22;1840;48.892;15.312;2023-03-14T08:06:35;8.00;97.40
3648;DHT22;1840;48.892;15.312;2023-03-14T08:09:03;7.90;97.40
3648;DHT22;1840;48.892;15.312;2023-03-14T08:11:32;7.80;97.80
3648;DHT22;1840;48.892;15.312;2023-03-14T08:14:00;7.50;97.60
3648;DHT22;1840;48.892;15.312;2023-03-14T08:16:30;7.20;98.00
3648;DHT22;1840;48.892;15.312;2023-03-14T08:18:59;7.10;98.20
3648;DHT22;1840;48.892;15.312;2023-03-14T08:21:28;7.00;98.20
3648;DHT22;1840;48.892;15.312;2023-03-14T08:23:56;7.20;98.20
3648;DHT22;1840;48.892;15.312;2023-03-14T08:26:24;7.30;98.10
3648;DHT22;1840;48.892;15.312;2023-03-14T08:28:53;7.30;97.90
3648;DHT22;1840;48.892;15.312;2023-03-14T08:31:21;7.60;97.70
3648;DHT22;1840;48.892;15.312;2023-03-14T08:33:52;7.40;97.70
3648;DHT22;1840;48.892;15.312;2023-03-14T08:36:22;7.20;98.20
3648;DHT22;1840;48.892;15.312;2023-03-14T08:38:50;7.10;97.90
3648;DHT22;1840;48.892;15.312;2023-03-14T08:41:18;7.10;98.10
3648;DHT22;1840;48.892;15.312;2023-03-14T08:43:46;7.10;98.10
3648;DHT22;1840;48.892;15.312;2023-03-14T08:46:15;7.20;98.10
3648;DHT22;1840;48.892;15.312;2023-03-14T08:48:44;7.00;98.20
3648;DHT22;1840;48.892;15.312;2023-03-14T08:51:15;7.00;98.20
3648;DHT22;1840;48.892;15.312;2023-03-14T08:53:44;7.30;98.00
3648;DHT22;1840;48.892;15.312;2023-03-14T08:59:18;7.40;97.80
3648;DHT22;1840;48.892;15.312;2023-03-14T09:01:48;7.50;98.00
3648;DHT22;1840;48.892;15.312;2023-03-14T09:04:17;7.60;97.50
3648;DHT22;1840;48.892;15.312;2023-03-14T09:06:47;7.60;97.50
3648;DHT22;1840;48.892;15.312;2023-03-14T09:09:16;7.70;97.40
3648;DHT22;1840;48.892;15.312;2023-03-14T09:11:45;7.90;97.20
3648;DHT22;1840;48.892;15.312;2023-03-14T09:14:13;8.20;97.00
3648;DHT22;1840;48.892;15.312;2023-03-14T09:16:41;8.20;96.80
3648;DHT22;1840;48.892;15.312;2023-03-14T09:19:10;8.10;97.20
3648;DHT22;1840;48.892;15.312;2023-03-14T09:21:40;8.20;96.80
3648;DHT22;1840;48.892;15.312;2023-03-14T09:24:09;8.20;96.80
3648;DHT22;1840;48.892;15.312;2023-03-14T09:26:38;8.10;96.90
3648;DHT22;1840;48.892;15.312;2023-03-14T09:29:07;8.30;96.70
3648;DHT22;1840;48.892;15.312;2023-03-14T09:31:36;8.40;96.60
3648;DHT22;1840;48.892;15.312;2023-03-14T09:34:04;8.40;96.60
3648;DHT22;1840;48.892;15.312;2023-03-14T09:36:32;8.20;96.50
3648;DHT22;1840;48.892;15.312;2023-03-14T09:39:01;8.30;96.60
3648;DHT22;1840;48.892;15.312;2023-03-14T09:41:37;8.60;96.20
3648;DHT22;1840;48.892;15.312;2023-03-14T09:44:10;8.70;96.00
3648;DHT22;1840;48.892;15.312;2023-03-14T09:46:43;8.70;96.10
3648;DHT22;1840;48.892;15.312;2023-03-14T09:49:17;8.60;96.20
3648;DHT22;1840;48.892;15.312;2023-03-14T09:51:49;8.60;96.30
3648;DHT22;1840;48.892;15.312;2023-03-14T09:54:29;8.60;96.10
3648;DHT22;1840;48.892;15.312;2023-03-14T09:57:00;8.40;96.40
3648;DHT22;1840;48.892;15.312;2023-03-14T09:59:30;8.40;96.20
3648;DHT22;1840;48.892;15.312;2023-03-14T10:02:00;8.50;95.90
3648;DHT22;1840;48.892;15.312;2023-03-14T10:04:30;8.30;95.90
3648;DHT22;1840;48.892;15.312;2023-03-14T10:07:00;8.20;96.10
3648;DHT22;1840;48.892;15.312;2023-03-14T10:09:32;8.00;96.20
3648;DHT22;1840;48.892;15.312;2023-03-14T10:12:08;7.60;96.50
3648;DHT22;1840;48.892;15.312;2023-03-14T10:14:44;7.50;96.80
3648;DHT22;1840;48.892;15.312;2023-03-14T10:17:14;7.50;96.80
3648;DHT22;1840;48.892;15.312;2023-03-14T10:19:54;7.70;96.90
3648;DHT22;1840;48.892;15.312;2023-03-14T10:22:26;7.60;96.70
3648;DHT22;1840;48.892;15.312;2023-03-14T10:24:59;7.50;96.80
3648;DHT22;1840;48.892;15.312;2023-03-14T10:27:33;7.40;96.90
3648;DHT22;1840;48.892;15.312;2023-03-14T10:30:04;7.50;97.10
3648;DHT22;1840;48.892;15.312;2023-03-14T10:32:35;7.50;97.00
3648;DHT22;1840;48.892;15.312;2023-03-14T10:35:18;7.60;97.30
3648;DHT22;1840;48.892;15.312;2023-03-14T10:37:51;7.70;97.20
3648;DHT22;1840;48.892;15.312;2023-03-14T10:40:26;7.90;96.70
3648;DHT22;1840;48.892;15.312;2023-03-14T10:43:00;8.00;96.80
3648;DHT22;1840;48.892;15.312;2023-03-14T10:45:35;7.80;96.60
3648;DHT22;1840;48.892;15.312;2023-03-14T10:48:19;7.90;96.70
3648;DHT22;1840;48.892;15.312;2023-03-14T10:50:50;7.90;96.20
3648;DHT22;1840;48.892;15.312;2023-03-14T10:53:23;7.70;96.40
3648;DHT22;1840;48.892;15.312;2023-03-14T10:55:56;7.60;96.80
3648;DHT22;1840;48.892;15.312;2023-03-14T10:58:28;7.90;96.70
3648;DHT22;1840;48.892;15.312;2023-03-14T11:01:06;7.90;96.50
3648;DHT22;1840;48.892;15.312;2023-03-14T11:03:42;8.10;96.20
3648;DHT22;1840;48.892;15.312;2023-03-14T11:06:16;8.30;96.00
3648;DHT22;1840;48.892;15.312;2023-03-14T11:08:54;8.30;96.00
3648;DHT22;1840;48.892;15.312;2023-03-14T11:11:29;8.20;95.60
3648;DHT22;1840;48.892;15.312;2023-03-14T11:14:13;7.90;96.30
3648;DHT22;1840;48.892;15.312;2023-03-14T11:16:52;8.00;96.20
3648;DHT22;1840;48.892;15.312;2023-03-14T11:19:45;8.00;96.20
3648;DHT22;1840;48.892;15.312;2023-03-14T11:22:21;8.30;95.90
3648;DHT22;1840;48.892;15.312;2023-03-14T11:25:12;7.90;96.40
3648;DHT22;1840;48.892;15.312;2023-03-14T11:27:44;7.80;96.30
3648;DHT22;1840;48.892;15.312;2023-03-14T11:30:24;8.00;96.80
3648;DHT22;1840;48.892;15.312;2023-03-14T11:33:03;8.40;96.60
3648;DHT22;1840;48.892;15.312;2023-03-14T11:35:37;8.70;96.40
3648;DHT22;1840;48.892;15.312;2023-03-14T11:38:21;9.00;96.20
3648;DHT22;1840;48.892;15.312;2023-03-14T11:40:58;8.90;96.10
3648;DHT22;1840;48.892;15.312;2023-03-14T11:43:30;8.70;95.60
3648;DHT22;1840;48.892;15.312;2023-03-14T11:46:09;8.40;96.20
3648;DHT22;1840;48.892;15.312;2023-03-14T11:48:43;8.40;95.80
3648;DHT22;1840;48.892;15.312;2023-03-14T11:51:20;8.40;95.80
3648;DHT22;1840;48.892;15.312;2023-03-14T11:54:01;8.40;95.60
3648;DHT22;1840;48.892;15.312;2023-03-14T11:56:36;8.30;95.50
3648;DHT22;1840;48.892;15.312;2023-03-14T11:59:13;8.40;95.20
3648;DHT22;1840;48.892;15.312;2023-03-14T12:01:53;8.20;95.60
3648;DHT22;1840;48.892;15.312;2023-03-14T12:04:34;8.40;95.60
3648;DHT22;1840;48.892;15.312;2023-03-14T12:07:14;8.40;95.30
3648;DHT22;1840;48.892;15.312;2023-03-14T12:09:45;8.20;95.60
3648;DHT22;1840;48.892;15.312;2023-03-14T12:12:18;8.20;95.60
3648;DHT22;1840;48.892;15.312;2023-03-14T12:14:54;8.60;95.50
3648;DHT22;1840;48.892;15.312;2023-03-14T12:17:32;8.60;94.90
3648;DHT22;1840;48.892;15.312;2023-03-14T12:20:06;8.70;95.00
3648;DHT22;1840;48.892;15.312;2023-03-14T12:22:47;8.50;94.90
3648;DHT22;1840;48.892;15.312;2023-03-14T12:25:22;8.30;94.90
3648;DHT22;1840;48.892;15.312;2023-03-14T12:28:16;8.10;95.10
3648;DHT22;1840;48.892;15.312;2023-03-14T12:30:48;8.30;94.90
3648;DHT22;1840;48.892;15.312;2023-03-14T12:33:32;8.20;94.80
3648;DHT22;1840;48.892;15.312;2023-03-14T12:36:18;8.30;94.60
3648;DHT22;1840;48.892;15.312;2023-03-14T12:39:05;8.30;94.60
3648;DHT22;1840;48.892;15.312;2023-03-14T12:41:40;8.00;94.80
3648;DHT22;1840;48.892;15.312;2023-03-14T12:44:46;8.20;95.00
3648;DHT22;1840;48.892;15.312;2023-03-14T12:47:41;8.70;95.30
3648;DHT22;1840;48.892;15.312;2023-03-14T12:50:20;8.80;95.00
3648;DHT22;1840;48.892;15.312;2023-03-14T12:55:48;8.60;94.50
3648;DHT22;1840;48.892;15.312;2023-03-14T12:58:23;8.90;94.30
3648;DHT22;1840;48.892;15.312;2023-03-14T13:00:58;9.00;94.20
3648;DHT22;1840;48.892;15.312;2023-03-14T13:03:37;9.10;94.40
3648;DHT22;1840;48.892;15.312;2023-03-14T13:06:10;9.00;94.30
3648;DHT22;1840;48.892;15.312;2023-03-14T13:08:41;9.00;94.60
3648;DHT22;1840;48.892;15.312;2023-03-14T13:11:12;8.80;94.60
3648;DHT22;1840;48.892;15.312;2023-03-14T13:13:45;8.90;94.30
3648;DHT22;1840;48.892;15.312;2023-03-14T13:16:17;8.80;94.30
3648;DHT22;1840;48.892;15.312;2023-03-14T13:18:47;8.70;94.40
3648;DHT22;1840;48.892;15.312;2023-03-14T13:21:18;8.70;94.30
3648;DHT22;1840;48.892;15.312;2023-03-14T13:23:58;8.60;94.60
3648;DHT22;1840;48.892;15.312;2023-03-14T13:26:34;8.70;94.70
3648;DHT22;1840;48.892;15.312;2023-03-14T13:29:15;8.60;94.20
3648;DHT22;1840;48.892;15.312;2023-03-14T13:31:45;8.60;94.80
3648;DHT22;1840;48.892;15.312;2023-03-14T13:34:14;8.70;94.80
3648;DHT22;1840;48.892;15.312;2023-03-14T13:36:45;8.80;94.60
3648;DHT22;1840;48.892;15.312;2023-03-14T13:39:18;8.70;94.70
3648;DHT22;1840;48.892;15.312;2023-03-14T13:41:48;8.70;94.90
3648;DHT22;1840;48.892;15.312;2023-03-14T13:44:23;8.60;94.90
3648;DHT22;1840;48.892;15.312;2023-03-14T13:46:57;8.60;95.10
3648;DHT22;1840;48.892;15.312;2023-03-14T13:49:28;8.40;95.60
3648;DHT22;1840;48.892;15.312;2023-03-14T13:52:01;8.50;96.10
3648;DHT22;1840;48.892;15.312;2023-03-14T13:54:31;8.40;96.10
3648;DHT22;1840;48.892;15.312;2023-03-14T13:57:01;8.30;96.20
3648;DHT22;1840;48.892;15.312;2023-03-14T13:59:31;8.10;96.50
3648;DHT22;1840;48.892;15.312;2023-03-14T14:02:03;8.30;96.50
3648;DHT22;1840;48.892;15.312;2023-03-14T14:04:36;8.10;96.40
3648;DHT22;1840;48.892;15.312;2023-03-14T14:07:10;8.00;96.20
3648;DHT22;1840;48.892;15.312;2023-03-14T14:09:42;8.10;96.50
3648;DHT22;1840;48.892;15.312;2023-03-14T14:12:14;8.00;96.50
3648;DHT22;1840;48.892;15.312;2023-03-14T14:14:47;8.00;96.30
3648;DHT22;1840;48.892;15.312;2023-03-14T14:17:19;7.90;96.00
3648;DHT22;1840;48.892;15.312;2023-03-14T14:19:51;7.80;96.10
3648;DHT22;1840;48.892;15.312;2023-03-14T14:22:22;7.70;96.40
3648;DHT22;1840;48.892;15.312;2023-03-14T14:24:51;7.80;96.10
3648;DHT22;1840;48.892;15.312;2023-03-14T14:27:27;7.70;96.00
3648;DHT22;1840;48.892;15.312;2023-03-14T14:30:00;7.80;96.30
3648;DHT22;1840;48.892;15.312;2023-03-14T14:32:35;7.80;95.90
3648;DHT22;1840;48.892;15.312;2023-03-14T14:35:05;7.80;95.80
3648;DHT22;1840;48.892;15.312;2023-03-14T14:37:41;7.80;95.50
3648;DHT22;1840;48.892;15.312;2023-03-14T14:40:16;7.70;95.30
3648;DHT22;1840;48.892;15.312;2023-03-14T14:42:44;7.70;95.40
3648;DHT22;1840;48.892;15.312;2023-03-14T14:45:16;7.90;95.30
3648;DHT22;1840;48.892;15.312;2023-03-14T14:47:50;8.10;95.10
3648;DHT22;1840;48.892;15.312;2023-03-14T14:50:28;8.10;95.20
3648;DHT22;1840;48.892;15.312;2023-03-14T14:53:00;8.20;95.10
3648;DHT22;1840;48.892;15.312;2023-03-14T14:55:33;8.10;95.10
3648;DHT22;1840;48.892;15.312;2023-03-14T14:58:12;8.00;95.20
3648;DHT22;1840;48.892;15.312;2023-03-14T15:00:50;8.00;95.20
3648;DHT22;1840;48.892;15.312;2023-03-14T15:03:19;8.10;95.20
3648;DHT22;1840;48.892;15.312;2023-03-14T15:05:48;8.40;95.20
3648;DHT22;1840;48.892;15.312;2023-03-14T15:08:17;8.50;94.90
3648;DHT22;1840;48.892;15.312;2023-03-14T15:10:45;8.50;94.70
3648;DHT22;1840;48.892;15.312;2023-03-14T15:13:14;8.40;94.70
3648;DHT22;1840;48.892;15.312;2023-03-14T15:15:42;8.50;94.60
3648;DHT22;1840;48.892;15.312;2023-03-14T15:18:13;8.50;95.00
3648;DHT22;1840;48.892;15.312;2023-03-14T15:20:43;8.50;94.40
3648;DHT22;1840;48.892;15.312;2023-03-14T15:23:12;8.50;94.30
3648;DHT22;1840;48.892;15.312;2023-03-14T15:25:42;8.30;94.50
3648;DHT22;1840;48.892;15.312;2023-03-14T15:28:23;8.30;94.80
3648;DHT22;1840;48.892;15.312;2023-03-14T15:30:54;8.20;95.20
3648;DHT22;1840;48.892;15.312;2023-03-14T15:33:24;8.10;95.20
3648;DHT22;1840;48.892;15.312;2023-03-14T15:35:52;8.00;95.40
3648;DHT22;1840;48.892;15.312;2023-03-14T15:38:21;8.10;95.10
3648;DHT22;1840;48.892;15.312;2023-03-14T15:40:53;8.10;95.00
3648;DHT22;1840;48.892;15.312;2023-03-14T15:43:22;8.20;95.10
3648;DHT22;1840;48.892;15.312;2023-03-14T15:45:51;8.30;94.90
3648;DHT22;1840;48.892;15.312;2023-03-14T15:48:20;8.40;94.60
3648;DHT22;1840;48.892;15.312;2023-03-14T15:50:49;8.50;94.40
3648;DHT22;1840;48.892;15.312;2023-03-14T15:53:18;8.50;94.30
3648;DHT22;1840;48.892;15.312;2023-03-14T15:55:46;8.20;94.50
3648;DHT22;1840;48.892;15.312;2023-03-14T15:58:18;8.30;94.50
3648;DHT22;1840;48.892;15.312;2023-03-14T16:00:49;8.20;94.50
3648;DHT22;1840;48.892;15.312;2023-03-14T16:03:17;8.20;94.60
3648;DHT22;1840;48.892;15.312;2023-03-14T16:05:46;8.20;94.60
3648;DHT22;1840;48.892;15.312;2023-03-14T16:08:15;8.20;94.70
3648;DHT22;1840;48.892;15.312;2023-03-14T16:10:45;8.20;94.60
3648;DHT22;1840;48.892;15.312;2023-03-14T16:13:13;8.30;94.60
3648;DHT22;1840;48.892;15.312;2023-03-14T16:15:42;8.20;94.50
3648;DHT22;1840;48.892;15.312;2023-03-14T16:18:11;8.20;94.70
3648;DHT22;1840;48.892;15.312;2023-03-14T16:20:57;8.30;94.60
3648;DHT22;1840;48.892;15.312;2023-03-14T16:23:26;8.40;94.60
3648;DHT22;1840;48.892;15.312;2023-03-14T16:25:55;8.30;94.60
3648;DHT22;1840;48.892;15.312;2023-03-14T16:28:24;8.20;94.50
3648;DHT22;1840;48.892;15.312;2023-03-14T16:30:59;8.30;94.50
3648;DHT22;1840;48.892;15.312;2023-03-14T16:33:28;8.10;94.50